| time (UTC) | temp F | wind direction | speed MPH | gust MPH | rain 1hr in | rain 24hr in | rain mn in | humidity % | barometer mb |
| 20260904225032 | 96 | 87 | 1.0 | 7.0 | 0.00 | 0.00 | 0.00 | 30 | 1013.0 |
| 20260904224030 | 96 | 79 | 5.0 | 9.0 | 0.00 | 0.00 | 0.00 | 29 | 1013.1 |
| 20260904223030 | 96 | 87 | 4.0 | 9.0 | 0.00 | 0.00 | 0.00 | 28 | 1013.0 |
| 20260904222032 | 96 | 281 | 3.0 | 9.0 | 0.00 | 0.00 | 0.00 | 28 | 1013.0 |
| 20260904221032 | 95 | 68 | 2.0 | 9.0 | 0.00 | 0.00 | 0.00 | 27 | 1013.4 |
| 20260904220032 | 95 | 88 | 5.0 | 10.0 | 0.00 | 0.00 | 0.00 | 28 | 1013.8 |
| 20260904215032 | 95 | 67 | 3.0 | 10.0 | 0.00 | 0.00 | 0.00 | 30 | 1013.8 |
| 20260904214032 | 95 | 273 | 3.0 | 12.0 | 0.00 | 0.00 | 0.00 | 31 | 1013.8 |
| 20260904213030 | 95 | 286 | 5.0 | 12.0 | 0.00 | 0.00 | 0.00 | 32 | 1013.7 |
| 20260904212032 | 95 | 84 | 4.0 | 13.0 | 0.00 | 0.00 | 0.00 | 33 | 1013.7 |
| 20260904211032 | 95 | 294 | 1.0 | 9.0 | 0.00 | 0.00 | 0.00 | 34 | 1014.0 |
| 20260904210049 | 94 | 74 | 1.0 | 6.0 | 0.00 | 0.00 | 0.00 | 34 | 1014.1 |
| 20260904205032 | 94 | 66 | 4.0 | 12.0 | 0.00 | 0.00 | 0.00 | 34 | 1014.1 |
| 20260904204032 | 94 | 272 | 2.0 | 10.0 | 0.00 | 0.00 | 0.00 | 35 | 1014.2 |
| 20260904203032 | 94 | 41 | 2.0 | 9.0 | 0.00 | 0.00 | 0.00 | 35 | 1014.3 |
| 20260904202030 | 94 | 270 | 3.0 | 9.0 | 0.00 | 0.00 | 0.00 | 36 | 1014.3 |
| 20260904201032 | 93 | 26 | 2.0 | 9.0 | 0.00 | 0.00 | 0.00 | 34 | 1014.7 |
| 20260904200032 | 93 | 85 | 0.0 | 3.0 | 0.00 | 0.00 | 0.00 | 35 | 1014.9 |
| 20260904195032 | 92 | 353 | 0.0 | 1.0 | 0.00 | 0.00 | 0.00 | 37 | 1014.9 |
| 20260904194032 | 92 | 63 | 4.0 | 7.0 | 0.00 | 0.00 | 0.00 | 37 | 1015.4 |
| 20260904193032 | 91 | 82 | 5.0 | 7.0 | 0.00 | 0.00 | 0.00 | 40 | 1015.5 |
| 20260904192030 | 91 | 37 | 2.0 | 9.0 | 0.00 | 0.00 | 0.00 | 43 | 1015.5 |
| 20260904191030 | 91 | 57 | 1.0 | 4.0 | 0.00 | 0.00 | 0.00 | 42 | 1015.5 |
| 20260904190032 | 91 | 73 | 3.0 | 7.0 | 0.00 | 0.00 | 0.00 | 43 | 1015.8 |
| 20260904185049 | 90 | 38 | 2.0 | 10.0 | 0.00 | 0.00 | 0.00 | 44 | 1015.8 |
| 20260904184032 | 90 | 24 | 3.0 | 9.0 | 0.00 | 0.00 | 0.00 | 45 | 1016.2 |
| 20260904182032 | 89 | 75 | 2.0 | 9.0 | 0.00 | 0.00 | 0.00 | 48 | 1016.3 |
| 20260904181047 | 89 | 46 | 2.0 | 7.0 | 0.00 | 0.00 | 0.00 | 49 | 1016.6 |
| 20260904180030 | 88 | 340 | 3.0 | 10.0 | 0.00 | 0.00 | 0.00 | 50 | 1016.7 |
| 20260904175032 | 88 | 343 | 2.0 | 7.0 | 0.00 | 0.00 | 0.00 | 51 | 1016.7 |
| 20260904174032 | 87 | 11 | 4.0 | 10.0 | 0.00 | 0.00 | 0.00 | 52 | 1016.8 |
| 20260904173032 | 87 | 343 | 5.0 | 9.0 | 0.00 | 0.00 | 0.00 | 52 | 1016.9 |
| 20260904172032 | 87 | 346 | 4.0 | 10.0 | 0.00 | 0.00 | 0.00 | 53 | 1016.9 |
| 20260904171049 | 86 | 9 | 4.0 | 12.0 | 0.00 | 0.00 | 0.00 | 53 | 1016.9 |
| 20260904170030 | 86 | 358 | 3.0 | 10.0 | 0.00 | 0.00 | 0.00 | 54 | 1017.1 |
| 20260904165032 | 85 | 9 | 4.0 | 10.0 | 0.00 | 0.00 | 0.00 | 55 | 1017.1 |
| 20260904164032 | 85 | 351 | 7.0 | 13.0 | 0.00 | 0.00 | 0.00 | 56 | 1017.0 |
| 20260904163032 | 85 | 6 | 4.0 | 10.0 | 0.00 | 0.00 | 0.00 | 57 | 1016.9 |
| 20260904162032 | 84 | 325 | 6.0 | 21.0 | 0.00 | 0.00 | 0.00 | 58 | 1016.9 |
| 20260904161032 | 84 | 2 | 4.0 | 10.0 | 0.00 | 0.00 | 0.00 | 59 | 1016.7 |
| 20260904160032 | 83 | 354 | 5.0 | 13.0 | 0.00 | 0.00 | 0.00 | 61 | 1016.9 |
| 20260904155049 | 82 | 345 | 4.0 | 10.0 | 0.00 | 0.00 | 0.00 | 63 | 1016.9 |
| 20260904154032 | 82 | 356 | 4.0 | 13.0 | 0.00 | 0.00 | 0.00 | 63 | 1016.6 |
| 20260904153032 | 82 | 353 | 4.0 | 9.0 | 0.00 | 0.00 | 0.00 | 63 | 1016.6 |
| 20260904152032 | 82 | 351 | 5.0 | 10.0 | 0.00 | 0.00 | 0.00 | 63 | 1016.6 |
| 20260904151032 | 82 | 324 | 5.0 | 10.0 | 0.00 | 0.00 | 0.00 | 63 | 1016.6 |
| 20260904150032 | 81 | 331 | 5.0 | 9.0 | 0.00 | 0.00 | 0.00 | 64 | 1016.6 |
| 20260904145032 | 81 | 358 | 6.0 | 12.0 | 0.00 | 0.00 | 0.00 | 65 | 1016.6 |
| 20260904144030 | 80 | 331 | 3.0 | 10.0 | 0.00 | 0.00 | 0.00 | 66 | 1016.7 |
| 20260904143032 | 80 | 0 | 4.0 | 12.0 | 0.00 | 0.00 | 0.00 | 67 | 1016.6 |
| 20260904142049 | 79 | 3 | 2.0 | 7.0 | 0.00 | 0.00 | 0.00 | 68 | 1016.6 |
| 20260904141032 | 79 | 339 | 3.0 | 7.0 | 0.00 | 0.00 | 0.00 | 68 | 1016.5 |
| 20260904140032 | 78 | 15 | 3.0 | 9.0 | 0.00 | 0.00 | 0.00 | 69 | 1016.4 |
| 20260904135049 | 78 | 1 | 3.0 | 9.0 | 0.00 | 0.00 | 0.00 | 70 | 1016.4 |
| 20260904134032 | 78 | 21 | 3.0 | 7.0 | 0.00 | 0.00 | 0.00 | 70 | 1016.3 |
| 20260904133030 | 78 | 14 | 3.0 | 6.0 | 0.00 | 0.00 | 0.00 | 70 | 1016.1 |
| 20260904132106 | 78 | 28 | 1.0 | 3.0 | 0.00 | 0.00 | 0.00 | 69 | 1016.1 |
| 20260904131032 | 78 | 357 | 2.0 | 7.0 | 0.00 | 0.00 | 0.00 | 69 | 1015.4 |
| 20260904130030 | 78 | 9 | 4.0 | 7.0 | 0.00 | 0.00 | 0.00 | 69 | 1015.4 |
| 20260904125032 | 79 | 25 | 1.0 | 3.0 | 0.00 | 0.00 | 0.00 | 68 | 1015.4 |
| 20260904124032 | 79 | 13 | 4.0 | 9.0 | 0.00 | 0.00 | 0.00 | 68 | 1015.0 |
| 20260904123032 | 79 | 354 | 3.0 | 7.0 | 0.00 | 0.00 | 0.00 | 68 | 1014.9 |
| 20260904122030 | 79 | 351 | 3.0 | 10.0 | 0.00 | 0.00 | 0.00 | 68 | 1014.9 |
| 20260904121032 | 79 | 351 | 2.0 | 7.0 | 0.00 | 0.00 | 0.00 | 67 | 1014.2 |
| 20260904120032 | 79 | 6 | 4.0 | 10.0 | 0.00 | 0.00 | 0.00 | 66 | 1014.2 |
| 20260904115032 | 79 | 13 | 4.0 | 9.0 | 0.00 | 0.00 | 0.00 | 66 | 1014.2 |
| 20260904114032 | 79 | 17 | 2.0 | 4.0 | 0.00 | 0.00 | 0.00 | 66 | 1014.2 |
| 20260904113032 | 80 | 346 | 1.0 | 7.0 | 0.00 | 0.00 | 0.00 | 65 | 1014.1 |
| 20260904112030 | 80 | 354 | 4.0 | 9.0 | 0.00 | 0.00 | 0.00 | 65 | 1014.1 |
| 20260904111032 | 80 | 340 | 2.0 | 7.0 | 0.00 | 0.00 | 0.00 | 65 | 1014.1 |
| 20260904110032 | 80 | 351 | 3.0 | 6.0 | 0.00 | 0.00 | 0.00 | 65 | 1014.0 |
| 20260904105032 | 80 | 342 | 5.0 | 13.0 | 0.00 | 0.00 | 0.00 | 65 | 1014.0 |
| 20260904104049 | 80 | 349 | 3.0 | 12.0 | 0.00 | 0.00 | 0.00 | 64 | 1014.1 |
| 20260904103032 | 80 | 13 | 3.0 | 9.0 | 0.00 | 0.00 | 0.00 | 64 | 1014.1 |
| 20260904102032 | 80 | 326 | 1.0 | 12.0 | 0.00 | 0.00 | 0.00 | 64 | 1014.1 |
| 20260904101047 | 80 | 339 | 4.0 | 10.0 | 0.00 | 0.00 | 0.00 | 64 | 1013.9 |
| 20260904100032 | 80 | 333 | 4.0 | 13.0 | 0.00 | 0.00 | 0.00 | 64 | 1013.7 |
| 20260904095032 | 80 | 348 | 4.0 | 15.0 | 0.00 | 0.00 | 0.00 | 64 | 1013.7 |
| 20260904094032 | 80 | 336 | 4.0 | 10.0 | 0.00 | 0.00 | 0.00 | 64 | 1013.6 |
| 20260904093032 | 80 | 336 | 3.0 | 9.0 | 0.00 | 0.00 | 0.00 | 64 | 1013.6 |
| 20260904092032 | 80 | 315 | 6.0 | 12.0 | 0.00 | 0.00 | 0.00 | 64 | 1013.6 |
| 20260904091032 | 80 | 339 | 6.0 | 13.0 | 0.00 | 0.00 | 0.00 | 64 | 1013.9 |
| 20260904090030 | 80 | 339 | 4.0 | 7.0 | 0.00 | 0.00 | 0.00 | 64 | 1013.8 |
| 20260904085047 | 80 | 338 | 2.0 | 7.0 | 0.00 | 0.00 | 0.00 | 64 | 1013.8 |
| 20260904084032 | 80 | 357 | 3.0 | 9.0 | 0.00 | 0.00 | 0.00 | 63 | 1013.9 |
| 20260904083032 | 80 | 357 | 4.0 | 9.0 | 0.00 | 0.00 | 0.00 | 64 | 1014.2 |
| 20260904082049 | 80 | 348 | 1.0 | 6.0 | 0.00 | 0.00 | 0.00 | 64 | 1014.2 |
| 20260904081049 | 81 | 7 | 1.0 | 6.0 | 0.00 | 0.00 | 0.00 | 64 | 1014.3 |
| 20260904080049 | 81 | 13 | 1.0 | 6.0 | 0.00 | 0.00 | 0.00 | 64 | 1014.3 |
| 20260904075030 | 81 | 324 | 2.0 | 13.0 | 0.00 | 0.00 | 0.00 | 63 | 1014.3 |
| 20260904074030 | 81 | 316 | 8.0 | 15.0 | 0.00 | 0.00 | 0.00 | 63 | 1014.3 |
| 20260904073032 | 81 | 327 | 5.0 | 10.0 | 0.00 | 0.00 | 0.00 | 63 | 1014.3 |
| 20260904072049 | 81 | 28 | 2.0 | 7.0 | 0.00 | 0.00 | 0.00 | 62 | 1014.3 |
| 20260904071032 | 81 | 14 | 3.0 | 6.0 | 0.00 | 0.00 | 0.00 | 61 | 1014.4 |
| 20260904070032 | 81 | 342 | 4.0 | 9.0 | 0.00 | 0.00 | 0.01 | 61 | 1014.5 |
| 20260904065032 | 82 | 15 | 3.0 | 9.0 | 0.00 | 0.00 | 0.01 | 61 | 1014.5 |
| 20260904064030 | 82 | 351 | 4.0 | 10.0 | 0.00 | 0.00 | 0.01 | 61 | 1014.5 |
| 20260904063032 | 82 | 354 | 4.0 | 12.0 | 0.00 | 0.00 | 0.01 | 60 | 1014.4 |
| 20260904062032 | 82 | 355 | 3.0 | 7.0 | 0.00 | 0.00 | 0.01 | 59 | 1014.4 |
| 20260904061032 | 82 | 15 | 3.0 | 7.0 | 0.00 | 0.00 | 0.01 | 59 | 1014.5 |
| 20260904060032 | 82 | 347 | 4.0 | 15.0 | 0.00 | 0.00 | 0.01 | 58 | 1014.5 |
| 20260904055106 | 82 | 352 | 3.0 | 9.0 | 0.00 | 0.00 | 0.01 | 59 | 1014.5 |
| 20260904054030 | 82 | 11 | 2.0 | 9.0 | 0.00 | 0.00 | 0.01 | 59 | 1014.1 |
| 20260904053032 | 82 | 5 | 3.0 | 9.0 | 0.00 | 0.00 | 0.01 | 60 | 1014.1 |
| 20260904052032 | 81 | 331 | 4.0 | 12.0 | 0.00 | 0.00 | 0.01 | 62 | 1014.1 |
| 20260904051032 | 81 | 342 | 4.0 | 12.0 | 0.00 | 0.00 | 0.01 | 64 | 1014.5 |
| 20260904050107 | 81 | 329 | 3.0 | 9.0 | 0.00 | 0.00 | 0.01 | 65 | 1014.9 |
| 20260904045032 | 81 | 356 | 3.0 | 7.0 | 0.00 | 0.00 | 0.01 | 65 | 1014.9 |
| 20260904044032 | 82 | 8 | 4.0 | 9.0 | 0.00 | 0.00 | 0.01 | 64 | 1014.9 |
| 20260904043030 | 82 | 346 | 4.0 | 9.0 | 0.00 | 0.00 | 0.01 | 62 | 1014.6 |
| 20260904042032 | 84 | 335 | 4.0 | 13.0 | 0.00 | 0.00 | 0.00 | 58 | 1014.6 |
| 20260904041032 | 84 | 6 | 5.0 | 7.0 | 0.00 | 0.00 | 0.00 | 55 | 1014.6 |
| 20260904040032 | 84 | 352 | 4.0 | 10.0 | 0.00 | 0.00 | 0.00 | 55 | 1014.2 |
| 20260904035032 | 84 | 358 | 6.0 | 18.0 | 0.00 | 0.00 | 0.00 | 55 | 1014.2 |
| 20260904034032 | 84 | 329 | 6.0 | 15.0 | 0.00 | 0.00 | 0.00 | 55 | 1014.2 |
| 20260904033032 | 84 | 310 | 5.0 | 18.0 | 0.00 | 0.00 | 0.00 | 55 | 1013.7 |
| 20260904032030 | 84 | 6 | 5.0 | 12.0 | 0.00 | 0.00 | 0.00 | 54 | 1013.7 |
| 20260904031030 | 85 | 357 | 3.0 | 9.0 | 0.00 | 0.00 | 0.00 | 53 | 1013.8 |
| 20260904030032 | 85 | 322 | 3.0 | 7.0 | 0.00 | 0.00 | 0.00 | 53 | 1013.5 |
| 20260904025032 | 85 | 344 | 5.0 | 12.0 | 0.00 | 0.00 | 0.00 | 53 | 1013.5 |
| 20260904024106 | 85 | 351 | 5.0 | 7.0 | 0.00 | 0.00 | 0.00 | 52 | 1013.3 |
| 20260904023049 | 85 | 324 | 5.0 | 10.0 | 0.00 | 0.00 | 0.00 | 52 | 1013.3 |
| 20260904022032 | 85 | 340 | 6.0 | 10.0 | 0.00 | 0.00 | 0.00 | 52 | 1013.3 |
| 20260904021047 | 85 | 351 | 5.0 | 9.0 | 0.00 | 0.00 | 0.00 | 52 | 1013.5 |
| 20260904020030 | 86 | 340 | 6.0 | 13.0 | 0.00 | 0.00 | 0.00 | 51 | 1013.2 |
| 20260904015032 | 87 | 329 | 6.0 | 13.0 | 0.00 | 0.00 | 0.00 | 50 | 1013.2 |
| 20260904014032 | 87 | 322 | 5.0 | 13.0 | 0.00 | 0.00 | 0.00 | 50 | 1013.1 |
| 20260904013032 | 88 | 344 | 3.0 | 12.0 | 0.00 | 0.00 | 0.00 | 50 | 1012.7 |
| 20260904012032 | 88 | 331 | 4.0 | 9.0 | 0.00 | 0.00 | 0.00 | 50 | 1012.7 |
| 20260904011032 | 88 | 14 | 3.0 | 12.0 | 0.00 | 0.00 | 0.00 | 49 | 1012.5 |
| 20260904010030 | 88 | 339 | 1.0 | 7.0 | 0.00 | 0.00 | 0.00 | 50 | 1012.6 |
| 20260904005032 | 88 | 20 | 3.0 | 10.0 | 0.00 | 0.00 | 0.00 | 49 | 1012.6 |
| 20260904004032 | 89 | 357 | 2.0 | 6.0 | 0.00 | 0.00 | 0.00 | 49 | 1012.7 |
| 20260904003032 | 91 | 339 | 4.0 | 12.0 | 0.00 | 0.00 | 0.00 | 45 | 1012.2 |
| 20260904002032 | 93 | 335 | 3.0 | 9.0 | 0.00 | 0.00 | 0.00 | 41 | 1012.2 |
| 20260904001106 | 95 | 27 | 1.0 | 6.0 | 0.00 | 0.00 | 0.00 | 37 | 1012.0 |
| 20260904000032 | 94 | 73 | 1.0 | 9.0 | 0.00 | 0.00 | 0.00 | 36 | 1012.0 |
| 20260903235032 | 94 | 89 | 2.0 | 7.0 | 0.00 | 0.00 | 0.00 | 37 | 1012.0 |
| 20260903234032 | 93 | 296 | 1.0 | 9.0 | 0.00 | 0.00 | 0.00 | 38 | 1012.4 |
| 20260903233032 | 94 | 73 | 5.0 | 12.0 | 0.00 | 0.00 | 0.00 | 37 | 1012.2 |
| 20260903232032 | 94 | 281 | 2.0 | 7.0 | 0.00 | 0.00 | 0.00 | 38 | 1012.2 |
| 20260903231032 | 94 | 67 | 1.0 | 7.0 | 0.00 | 0.00 | 0.00 | 39 | 1012.1 |
| 20260903230032 | 94 | 280 | 3.0 | 12.0 | 0.00 | 0.00 | 0.00 | 39 | 1012.3 |